Time;durP1;ratioP1;P1;durP2;ratioP2;P2;SDS_P1;SDS_P2;PMS_P1;PMS_P2;Temp;Humidity;BMP_temperature;BMP_pressure;BME280_temperature;BME280_humidity;BME280_pressure;Samples;Min_cycle;Max_cycle;Signal;HPM_P1;HPM_P2
2022/06/16 00:00:40;;;;;;;7.10;2.90;;;;;;;21.50;100.00;98975.66;5112396;28;20205;-81
2022/06/16 00:03:10;;;;;;;5.53;2.75;;;;;;;21.50;100.00;98970.28;5106559;28;20195;-80
2022/06/16 00:05:43;;;;;;;4.88;2.63;;;;;;;21.48;100.00;98973.16;5111962;28;20203;-80
2022/06/16 00:08:14;;;;;;;4.25;2.45;;;;;;;21.51;100.00;98961.16;5114389;28;20228;-81
2022/06/16 00:13:30;;;;;;;3.72;2.65;;;;;;;21.78;100.00;98968.84;5112736;28;20202;-80
2022/06/16 00:15:59;;;;;;;4.30;3.00;;;;;;;21.57;100.00;98961.31;5113672;28;20206;-81
2022/06/16 00:18:28;;;;;;;6.00;2.50;;;;;;;21.38;100.00;98962.56;5113326;28;20191;-81
2022/06/16 00:20:58;;;;;;;3.42;2.45;;;;;;;21.53;100.00;98957.31;5112970;28;20209;-81
2022/06/16 00:23:26;;;;;;;5.53;2.78;;;;;;;21.51;100.00;98947.69;5109640;28;20205;-81
2022/06/16 00:25:56;;;;;;;5.03;2.40;;;;;;;21.53;100.00;98946.53;5114432;28;20285;-81
2022/06/16 00:28:25;;;;;;;7.28;2.63;;;;;;;21.53;100.00;98946.53;5114240;28;20290;-80
2022/06/16 00:31:01;;;;;;;3.85;2.53;;;;;;;21.45;100.00;98943.84;5110782;28;20192;-81
2022/06/16 00:33:30;;;;;;;5.65;2.72;;;;;;;21.47;100.00;98939.13;5114318;28;20222;-80
2022/06/16 00:35:58;;;;;;;4.78;2.60;;;;;;;21.55;100.00;98946.34;5112770;28;20195;-81
2022/06/16 00:38:27;;;;;;;4.60;2.50;;;;;;;21.47;100.00;98935.59;5114172;28;20187;-81
2022/06/16 00:40:57;;;;;;;4.10;2.60;;;;;;;21.58;100.00;98938.75;5112424;28;20191;-81
2022/06/16 00:43:26;;;;;;;3.72;2.40;;;;;;;21.59;100.00;98934.19;5112899;28;20193;-81
2022/06/16 00:45:59;;;;;;;4.82;2.55;;;;;;;21.52;100.00;98930.50;5111401;28;20275;-80
2022/06/16 00:48:32;;;;;;;3.47;2.50;;;;;;;21.47;100.00;98936.44;5113596;28;20213;-81
2022/06/16 00:51:05;;;;;;;4.60;2.40;;;;;;;21.40;100.00;98938.13;5112568;28;20275;-81
2022/06/16 00:53:35;;;;;;;4.90;2.58;;;;;;;21.25;100.00;98945.22;5114010;28;20195;-80
2022/06/16 00:56:09;;;;;;;3.95;2.50;;;;;;;21.00;100.00;98947.09;5113777;28;20195;-80
2022/06/16 00:58:41;;;;;;;4.30;2.70;;;;;;;21.03;100.00;98952.97;5110427;28;20202;-80
2022/06/16 01:01:11;;;;;;;5.35;2.72;;;;;;;20.88;100.00;98953.84;5113718;28;20190;-80
2022/06/16 01:06:30;;;;;;;7.32;3.20;;;;;;;20.57;100.00;98941.91;5113938;28;20191;-80
2022/06/16 01:09:02;;;;;;;5.32;2.80;;;;;;;20.67;100.00;98952.50;5118293;28;20251;-80
2022/06/16 01:15:13;;;;;;;4.95;2.67;;;;;;;20.51;100.00;98961.38;5119886;27;20222;-81
2022/06/16 01:17:52;;;;;;;4.28;2.30;;;;;;;20.41;100.00;98967.91;5115063;28;20183;-80
2022/06/16 01:20:31;;;;;;;4.82;2.45;;;;;;;20.13;100.00;98962.78;5109162;28;20195;-80
2022/06/16 01:23:44;;;;;;;4.45;2.55;;;;;;;20.11;100.00;98955.91;5120342;27;20206;-80
2022/06/16 01:26:46;;;;;;;5.60;2.80;;;;;;;20.07;100.00;98949.16;5050922;28;20197;-80
2022/06/16 01:29:24;;;;;;;5.03;2.93;;;;;;;20.10;100.00;98955.06;5053155;28;20287;-80
2022/06/16 01:31:58;;;;;;;5.50;3.10;;;;;;;20.08;100.00;98954.38;5102353;27;20206;-81
2022/06/16 01:34:33;;;;;;;3.85;3.03;;;;;;;20.03;100.00;98951.34;5117959;27;20218;-80
2022/06/16 01:37:10;;;;;;;4.88;3.00;;;;;;;20.00;100.00;98960.56;5117177;28;20199;-80
2022/06/16 01:39:47;;;;;;;3.92;3.00;;;;;;;19.90;100.00;98954.50;5120928;27;20232;-80
2022/06/16 01:42:21;;;;;;;4.50;3.00;;;;;;;19.94;100.00;98957.69;5113623;28;20633;-80
2022/06/16 01:44:58;;;;;;;4.50;2.90;;;;;;;19.90;100.00;98967.94;5117559;28;20198;-81
2022/06/16 01:47:30;;;;;;;4.00;3.00;;;;;;;19.79;100.00;98964.69;5116179;28;20295;-80
2022/06/16 01:50:03;;;;;;;3.57;2.90;;;;;;;19.76;100.00;98973.91;5116773;28;20251;-80
2022/06/16 01:52:37;;;;;;;6.43;2.90;;;;;;;19.58;100.00;98967.78;5120120;27;20210;-80
2022/06/16 01:55:12;;;;;;;5.07;3.37;;;;;;;19.81;100.00;98970.75;5111444;28;20263;-80
2022/06/16 01:57:47;;;;;;;6.27;3.00;;;;;;;19.79;100.00;98962.84;5117634;28;20210;-81
2022/06/16 02:00:20;;;;;;;4.15;2.70;;;;;;;19.81;100.00;98965.38;5114710;28;20203;-80
2022/06/16 02:02:57;;;;;;;6.03;2.60;;;;;;;19.75;100.00;98969.53;5113194;28;20195;-80
2022/06/16 02:05:29;;;;;;;6.80;2.93;;;;;;;19.93;100.00;98978.34;5117704;27;20202;-80
2022/06/16 02:08:02;;;;;;;5.03;2.83;;;;;;;19.85;100.00;98978.31;5116409;28;20191;-80
2022/06/16 02:10:34;;;;;;;4.33;2.80;;;;;;;19.55;100.00;98973.44;5115944;27;20206;-80
2022/06/16 02:13:05;;;;;;;4.03;2.80;;;;;;;19.56;100.00;98975.16;5116968;28;20275;-80
2022/06/16 02:15:41;;;;;;;4.13;3.07;;;;;;;19.49;100.00;98966.00;5116519;28;20222;-80
2022/06/16 02:18:12;;;;;;;5.10;2.93;;;;;;;19.67;100.00;98972.19;5113020;28;20281;-80
2022/06/16 02:20:51;;;;;;;4.40;2.90;;;;;;;19.59;100.00;98980.19;5078440;28;20202;-80
2022/06/16 02:23:23;;;;;;;4.50;2.97;;;;;;;19.42;100.00;98980.09;5112594;28;20194;-80
2022/06/16 02:25:58;;;;;;;4.97;2.70;;;;;;;19.46;100.00;98985.97;5115894;28;20208;-80
2022/06/16 02:28:28;;;;;;;6.17;3.07;;;;;;;19.39;100.00;98980.41;5114423;28;20704;-80
2022/06/16 02:31:11;;;;;;;4.60;3.03;;;;;;;19.46;100.00;98988.66;5119015;27;20202;-80
2022/06/16 02:33:53;;;;;;;3.27;2.97;;;;;;;19.43;100.00;98989.84;5118763;27;20222;-80
2022/06/16 02:36:36;;;;;;;5.47;3.07;;;;;;;19.37;100.00;98987.78;5114808;28;20215;-80
2022/06/16 02:39:17;;;;;;;4.90;3.20;;;;;;;19.32;100.00;98989.25;5115966;28;20206;-80
2022/06/16 02:41:54;;;;;;;4.53;2.93;;;;;;;19.42;100.00;98988.16;5119156;27;20210;-81
2022/06/16 02:44:35;;;;;;;5.57;3.30;;;;;;;19.30;100.00;98991.25;5111855;28;20210;-80
2022/06/16 02:47:13;;;;;;;3.63;3.30;;;;;;;19.22;100.00;98980.47;5114982;28;20194;-81
2022/06/16 02:49:48;;;;;;;5.47;3.03;;;;;;;19.36;100.00;98980.72;5113371;28;20258;-81
2022/06/16 02:52:27;;;;;;;5.33;3.03;;;;;;;19.26;100.00;98988.03;5113227;28;20202;-81
2022/06/16 02:55:04;;;;;;;5.53;3.10;;;;;;;19.05;100.00;98985.72;5110660;28;20199;-80
2022/06/16 02:57:42;;;;;;;3.03;2.73;;;;;;;19.14;100.00;98989.31;5116062;28;20198;-79
2022/06/16 03:00:14;;;;;;;6.63;3.13;;;;;;;18.85;100.00;98989.59;5115883;28;20195;-80
2022/06/16 03:02:44;;;;;;;5.30;3.03;;;;;;;18.92;100.00;98993.34;5112972;28;20199;-80
2022/06/16 03:05:19;;;;;;;4.53;2.87;;;;;;;19.01;100.00;98997.78;5114079;28;20195;-80
2022/06/16 03:07:47;;;;;;;3.10;2.80;;;;;;;18.82;100.00;99008.69;5113332;28;20204;-80
2022/06/16 03:10:50;;;;;;;5.00;2.87;;;;;;;18.71;100.00;99014.25;5115265;27;20213;-80
2022/06/16 03:13:07;;;;;;;5.17;2.80;;;;;;;18.56;100.00;99012.09;5114956;28;20330;-79
2022/06/16 03:15:37;;;;;;;5.77;3.40;;;;;;;18.27;100.00;99011.44;5074589;28;20218;-80
2022/06/16 03:18:07;;;;;;;4.03;2.70;;;;;;;18.34;100.00;99012.53;5117536;27;20206;-80
2022/06/16 03:20:35;;;;;;;5.10;3.33;;;;;;;18.51;100.00;99008.16;5038279;28;20208;-80
2022/06/16 03:23:04;;;;;;;5.17;3.10;;;;;;;18.67;100.00;99013.72;5067334;28;20193;-80
2022/06/16 03:25:33;;;;;;;5.87;3.10;;;;;;;18.66;100.00;99019.25;5071697;28;20196;-80
2022/06/16 03:28:01;;;;;;;4.07;3.20;;;;;;;18.70;100.00;99020.63;5064108;28;20331;-80
2022/06/16 03:30:31;;;;;;;4.60;3.03;;;;;;;18.70;100.00;99026.84;5069884;28;20644;-80
2022/06/16 03:32:59;;;;;;;5.60;3.07;;;;;;;18.74;100.00;99030.06;5068811;28;20228;-80
2022/06/16 03:35:29;;;;;;;4.27;2.90;;;;;;;18.67;100.00;99029.00;5067348;28;20216;-80
2022/06/16 03:37:58;;;;;;;5.50;3.00;;;;;;;18.35;100.00;99029.47;5075264;28;20212;-80
2022/06/16 03:40:26;;;;;;;5.07;3.07;;;;;;;18.37;100.00;99028.31;5116817;27;20221;-80
2022/06/16 03:42:56;;;;;;;5.07;3.00;;;;;;;18.18;100.00;99034.63;5110790;28;20191;-80
2022/06/16 03:45:25;;;;;;;5.63;2.93;;;;;;;18.33;100.00;99034.97;5115379;28;20282;-80
2022/06/16 03:47:53;;;;;;;8.47;3.03;;;;;;;18.53;100.00;99046.44;5115026;28;20195;-80
2022/06/16 03:50:23;;;;;;;8.27;3.00;;;;;;;18.45;100.00;99052.56;5112282;28;20278;-80
2022/06/16 03:52:53;;;;;;;5.10;3.00;;;;;;;18.51;100.00;99045.72;5115126;28;20277;-80
2022/06/16 03:55:22;;;;;;;4.93;3.03;;;;;;;18.64;100.00;99040.84;5112813;28;20187;-80
2022/06/16 03:57:51;;;;;;;6.37;3.13;;;;;;;18.70;100.00;99042.94;5114558;28;20617;-80
2022/06/16 04:00:22;;;;;;;5.23;2.90;;;;;;;18.51;100.00;99048.41;5109656;28;20202;-80
2022/06/16 04:03:59;;;;;;;4.27;2.70;;;;;;;18.55;100.00;99050.66;5114495;28;20195;-80
2022/06/16 04:05:41;;;;;;;4.23;2.77;;;;;;;18.70;100.00;99056.34;5114376;27;20203;-80
2022/06/16 04:08:12;;;;;;;4.53;3.17;;;;;;;18.83;100.00;99054.16;5109274;28;20198;-80
2022/06/16 04:10:41;;;;;;;6.87;2.80;;;;;;;18.96;100.00;99060.97;5114849;28;20205;-81
2022/06/16 04:13:09;;;;;;;5.30;2.87;;;;;;;18.93;100.00;99063.97;5076490;28;20187;-80
2022/06/16 04:15:40;;;;;;;5.50;2.90;;;;;;;18.86;100.00;99061.03;5114178;28;20214;-80
2022/06/16 04:18:09;;;;;;;4.97;3.00;;;;;;;18.84;100.00;99063.88;5049031;28;20660;-80
2022/06/16 04:20:38;;;;;;;4.47;2.90;;;;;;;18.86;100.00;99069.94;5046499;28;20205;-80
2022/06/16 04:23:10;;;;;;;4.27;2.90;;;;;;;18.90;100.00;99067.78;5051563;28;20196;-80
2022/06/16 04:25:40;;;;;;;5.67;2.87;;;;;;;18.95;100.00;99060.13;5047332;28;20200;-80
2022/06/16 04:28:10;;;;;;;6.97;2.97;;;;;;;18.91;100.00;99066.78;5051996;28;20196;-80
2022/06/16 04:30:38;;;;;;;4.57;2.90;;;;;;;18.96;100.00;99069.88;5049886;28;20189;-81
2022/06/16 04:33:08;;;;;;;4.60;2.90;;;;;;;19.02;100.00;99063.06;5049441;28;20229;-81
2022/06/16 04:35:38;;;;;;;4.40;2.93;;;;;;;19.02;100.00;99068.41;5056459;28;20198;-80
2022/06/16 04:38:08;;;;;;;4.70;2.67;;;;;;;19.14;100.00;99059.13;5117344;27;20279;-80
2022/06/16 04:40:36;;;;;;;4.93;3.03;;;;;;;19.21;100.00;99060.19;5113903;28;20284;-80
2022/06/16 04:43:07;;;;;;;4.87;2.97;;;;;;;19.23;100.00;99071.63;5111577;28;20198;-80
2022/06/16 04:45:35;;;;;;;4.53;3.13;;;;;;;19.34;100.00;99073.22;5111500;28;20191;-80
2022/06/16 04:48:05;;;;;;;7.47;2.90;;;;;;;19.14;100.00;99067.19;5113845;27;20199;-80
2022/06/16 04:50:33;;;;;;;3.90;2.90;;;;;;;19.28;100.00;99073.81;5111485;28;20274;-80
2022/06/16 04:53:02;;;;;;;6.00;2.67;;;;;;;19.33;100.00;99074.22;5111182;28;20198;-81
2022/06/16 04:55:32;;;;;;;5.53;2.80;;;;;;;19.17;100.00;99088.34;5108239;28;20191;-80
2022/06/16 04:58:06;;;;;;;7.77;3.57;;;;;;;19.10;100.00;99088.09;5107207;28;20211;-80
2022/06/16 05:00:36;;;;;;;4.77;3.17;;;;;;;19.10;100.00;99088.09;5113757;28;20270;-80
2022/06/16 05:03:08;;;;;;;6.73;2.83;;;;;;;18.97;100.00;99097.56;5116376;27;20203;-80
2022/06/16 05:05:38;;;;;;;4.97;2.90;;;;;;;18.83;100.00;99082.84;5110337;28;20191;-80
2022/06/16 05:08:06;;;;;;;6.97;3.60;;;;;;;18.77;100.00;99084.28;5116228;27;20191;-80
2022/06/16 05:10:35;;;;;;;6.27;3.10;;;;;;;18.86;100.00;99086.03;5115510;27;20195;-80
2022/06/16 05:13:04;;;;;;;5.17;3.00;;;;;;;18.91;100.00;99095.47;5110051;28;20198;-80
2022/06/16 05:15:32;;;;;;;4.73;2.90;;;;;;;18.95;100.00;99096.88;5106238;28;20230;-80
2022/06/16 05:18:02;;;;;;;5.10;2.90;;;;;;;18.86;100.00;99101.31;5109216;28;20214;-80
2022/06/16 05:20:31;;;;;;;5.10;2.97;;;;;;;18.99;100.00;99112.50;5111559;28;20195;-80
2022/06/16 05:22:59;;;;;;;5.73;2.83;;;;;;;18.96;100.00;99112.81;5112491;28;20668;-80
2022/06/16 05:25:28;;;;;;;6.40;3.07;;;;;;;18.93;100.00;99117.66;5106326;28;20202;-80
2022/06/16 05:27:57;;;;;;;5.10;3.00;;;;;;;18.79;100.00;99122.53;5110991;28;20222;-80
2022/06/16 05:30:26;;;;;;;5.83;3.10;;;;;;;19.02;100.00;99130.16;5113014;28;20199;-80
2022/06/16 05:32:54;;;;;;;6.90;3.47;;;;;;;18.99;100.00;99135.81;5115962;27;20223;-80
2022/06/16 05:35:24;;;;;;;3.97;2.83;;;;;;;19.21;100.00;99132.69;5107957;28;20217;-80
2022/06/16 05:37:53;;;;;;;3.90;2.90;;;;;;;19.12;100.00;99130.94;5112526;28;20221;-80
2022/06/16 05:40:21;;;;;;;5.87;3.00;;;;;;;19.04;100.00;99139.75;5113508;28;20195;-80
2022/06/16 05:42:49;;;;;;;6.13;3.17;;;;;;;19.00;100.00;99140.19;5112035;28;20198;-80
2022/06/16 05:45:18;;;;;;;5.60;3.20;;;;;;;19.19;100.00;99141.88;5113048;28;20233;-80
2022/06/16 05:47:47;;;;;;;7.97;3.00;;;;;;;19.02;100.00;99143.59;5050609;28;20201;-80
2022/06/16 05:50:16;;;;;;;4.50;3.03;;;;;;;19.12;100.00;99142.53;5045530;28;20217;-80
2022/06/16 05:52:46;;;;;;;5.30;3.27;;;;;;;19.18;100.00;99149.09;5047026;28;20190;-80
2022/06/16 05:55:15;;;;;;;6.30;3.10;;;;;;;19.29;100.00;99153.41;5051243;28;20185;-80
2022/06/16 05:57:44;;;;;;;7.47;3.30;;;;;;;19.27;100.00;99156.25;5054329;28;20267;-80
2022/06/16 06:00:15;;;;;;;7.77;3.30;;;;;;;19.58;100.00;99154.03;5052251;28;20644;-80
2022/06/16 06:02:43;;;;;;;5.07;2.63;;;;;;;19.83;100.00;99156.91;5054865;28;20196;-80
2022/06/16 06:05:13;;;;;;;7.33;2.97;;;;;;;19.59;100.00;99161.09;5052774;28;20221;-80
2022/06/16 06:18:44;;;;;;;5.50;2.87;;;;;;;19.69;100.00;99152.94;5116599;28;20210;-80
2022/06/16 06:21:12;;;;;;;6.17;3.00;;;;;;;19.81;100.00;99159.75;5114838;28;20203;-80
2022/06/16 06:23:44;;;;;;;6.17;3.00;;;;;;;19.72;100.00;99161.53;5116689;27;20202;-80
2022/06/16 06:26:15;;;;;;;7.67;3.30;;;;;;;19.47;100.00;99172.19;5115169;27;20191;-80
2022/06/16 06:28:43;;;;;;;5.37;3.50;;;;;;;19.64;100.00;99171.38;5109392;28;20228;-80
2022/06/16 06:31:11;;;;;;;6.43;3.40;;;;;;;19.57;100.00;99176.53;5113216;28;20202;-80
2022/06/16 06:33:40;;;;;;;6.60;3.20;;;;;;;19.85;100.00;99171.88;5114523;28;20227;-80
2022/06/16 06:36:10;;;;;;;8.37;3.20;;;;;;;20.13;100.00;99174.41;5113314;28;20215;-80
2022/06/16 06:38:39;;;;;;;4.30;3.13;;;;;;;19.95;100.00;99175.31;5098053;28;20214;-80
2022/06/16 06:41:07;;;;;;;5.03;3.07;;;;;;;19.71;100.00;99178.66;5115810;28;20195;-80
2022/06/16 06:43:37;;;;;;;7.07;3.57;;;;;;;19.82;100.00;99188.31;5116124;27;20207;-80
2022/06/16 06:46:07;;;;;;;8.07;3.17;;;;;;;20.04;100.00;99183.44;5111043;28;20240;-80
2022/06/16 06:48:37;;;;;;;6.60;3.30;;;;;;;19.99;100.00;99184.75;5114760;28;20195;-80
2022/06/16 06:51:05;;;;;;;4.33;3.03;;;;;;;19.79;100.00;99191.34;5113425;28;20207;-80
2022/06/16 06:53:33;;;;;;;4.20;3.17;;;;;;;20.12;100.00;99195.09;5107121;28;20191;-79
2022/06/16 06:56:02;;;;;;;5.23;3.37;;;;;;;20.35;100.00;99200.75;5081020;28;20199;-80
2022/06/16 06:58:32;;;;;;;4.10;3.17;;;;;;;20.31;100.00;99196.72;5115627;28;20215;-80
2022/06/16 07:01:02;;;;;;;4.83;2.87;;;;;;;20.32;100.00;99202.94;5117915;28;20225;-81
2022/06/16 07:03:31;;;;;;;6.50;3.67;;;;;;;20.42;100.00;99200.97;5113492;27;20274;-80
2022/06/16 07:06:02;;;;;;;8.13;3.53;;;;;;;20.58;100.00;99195.72;5114107;28;20218;-80
2022/06/16 07:08:31;;;;;;;5.43;3.47;;;;;;;20.58;100.00;99198.41;5114486;28;20195;-80
2022/06/16 07:10:59;;;;;;;9.00;3.40;;;;;;;20.78;100.00;99204.38;5108376;28;20199;-80
2022/06/16 07:13:28;;;;;;;4.80;3.20;;;;;;;20.71;100.00;99211.41;5113490;28;20226;-80
2022/06/16 07:15:57;;;;;;;4.75;3.20;;;;;;;20.84;100.00;99215.38;5113380;28;20193;-80
2022/06/16 07:18:27;;;;;;;6.45;3.05;;;;;;;21.01;100.00;99205.47;5108894;28;20218;-80
2022/06/16 07:20:55;;;;;;;4.40;3.03;;;;;;;21.46;100.00;99222.28;5112788;28;20206;-80
2022/06/16 07:23:23;;;;;;;4.75;3.13;;;;;;;21.38;100.00;99221.25;5115202;27;20298;-81
2022/06/16 07:25:53;;;;;;;5.00;2.97;;;;;;;21.48;100.00;99217.56;5114387;28;20195;-81
2022/06/16 07:28:21;;;;;;;3.55;2.63;;;;;;;21.62;100.00;99225.84;5115468;28;20273;-81
2022/06/16 07:30:50;;;;;;;4.83;3.20;;;;;;;21.29;100.00;99226.78;5117138;27;20206;-80
2022/06/16 07:33:18;;;;;;;9.68;3.00;;;;;;;21.29;100.00;99226.78;5112091;28;20279;-79
2022/06/16 07:35:48;;;;;;;7.90;3.33;;;;;;;21.18;100.00;99225.22;5116273;27;20199;-80
2022/06/16 07:38:17;;;;;;;7.22;3.20;;;;;;;21.17;100.00;99231.63;5113061;28;20302;-80
2022/06/16 07:40:45;;;;;;;6.38;3.28;;;;;;;21.30;100.00;99234.72;5113949;28;20206;-80
2022/06/16 07:43:14;;;;;;;6.07;2.95;;;;;;;21.46;100.00;99236.59;5115366;28;20207;-81
2022/06/16 07:45:42;;;;;;;6.25;3.25;;;;;;;21.69;100.00;99236.78;5115165;28;20199;-81
2022/06/16 07:48:10;;;;;;;5.53;3.17;;;;;;;21.69;100.00;99237.63;5113841;27;20286;-81
2022/06/16 07:50:39;;;;;;;4.22;2.80;;;;;;;22.01;100.00;99238.69;5113964;28;20190;-80
2022/06/16 07:53:09;;;;;;;7.50;3.13;;;;;;;22.27;100.00;99242.03;5114759;28;20225;-80
2022/06/16 07:55:37;;;;;;;4.78;2.60;;;;;;;22.45;100.00;99235.59;5114743;28;20240;-80
2022/06/16 07:58:06;;;;;;;5.30;3.03;;;;;;;22.53;100.00;99247.22;5108492;28;20221;-80
2022/06/16 08:00:35;;;;;;;5.57;3.15;;;;;;;22.66;100.00;99248.53;5112182;28;20205;-81
2022/06/16 08:03:04;;;;;;;5.35;2.85;;;;;;;22.57;100.00;99250.41;5113691;28;20205;-80
2022/06/16 08:05:34;;;;;;;4.53;2.83;;;;;;;22.50;100.00;99250.28;5079563;28;20197;-80
2022/06/16 08:08:02;;;;;;;3.55;2.53;;;;;;;22.68;99.46;99254.59;5114752;28;20230;-80
2022/06/16 08:10:35;;;;;;;6.55;2.70;;;;;;;22.86;98.21;99255.25;5114848;28;20202;-80
2022/06/16 08:13:04;;;;;;;6.85;2.90;;;;;;;22.94;100.00;99251.69;5110901;28;20278;-80
2022/06/16 08:15:33;;;;;;;5.80;2.50;;;;;;;23.19;100.00;99252.44;5110576;28;20205;-80
2022/06/16 08:18:02;;;;;;;4.53;3.00;;;;;;;23.04;100.00;99247.75;5110789;28;20252;-80
2022/06/16 08:20:30;;;;;;;5.03;2.80;;;;;;;23.20;99.39;99256.81;5113199;27;20232;-80
2022/06/16 08:23:00;;;;;;;5.05;2.95;;;;;;;23.05;100.00;99245.88;5109283;28;20192;-80
2022/06/16 08:25:29;;;;;;;6.22;2.78;;;;;;;23.23;93.56;99260.00;5112239;28;20219;-80
2022/06/16 08:28:02;;;;;;;5.80;3.00;;;;;;;23.22;90.59;99254.78;5109273;28;20199;-80
2022/06/16 08:30:33;;;;;;;5.40;2.75;;;;;;;23.22;90.58;99257.47;5113581;28;20200;-80
2022/06/16 08:33:02;;;;;;;5.30;2.70;;;;;;;23.29;89.66;99261.16;5114289;28;20223;-81
2022/06/16 08:35:31;;;;;;;5.82;2.83;;;;;;;23.30;86.82;99262.84;5111885;28;20207;-81
2022/06/16 08:38:01;;;;;;;4.75;2.60;;;;;;;23.54;88.96;99261.84;5107206;28;20232;-80
2022/06/16 08:40:30;;;;;;;5.93;2.90;;;;;;;23.58;85.48;99269.44;5116538;27;20203;-80
2022/06/16 08:43:05;;;;;;;6.25;2.63;;;;;;;23.54;87.52;99268.09;5117808;27;20234;-80
2022/06/16 08:45:36;;;;;;;5.03;2.53;;;;;;;23.81;88.21;99264.06;5111768;28;20202;-80
2022/06/16 08:48:21;;;;;;;4.70;2.60;;;;;;;23.63;84.23;99267.06;5117102;27;20203;-80
2022/06/16 08:50:56;;;;;;;5.50;2.60;;;;;;;23.74;86.96;99263.13;5112887;28;20190;-80
2022/06/16 08:53:57;;;;;;;4.70;2.72;;;;;;;23.89;82.12;99269.41;5115161;28;20197;-79
2022/06/16 08:56:34;;;;;;;4.82;2.67;;;;;;;23.58;86.18;99263.19;5114009;28;20186;-80
2022/06/16 08:59:11;;;;;;;8.52;2.80;;;;;;;24.05;82.92;99278.44;5110929;28;20267;-80
2022/06/16 09:01:45;;;;;;;4.03;2.10;;;;;;;24.38;83.98;99270.88;5110666;28;20198;-81
2022/06/16 09:04:24;;;;;;;4.05;2.35;;;;;;;23.92;85.35;99268.19;5113636;28;20191;-80
2022/06/16 09:07:03;;;;;;;6.53;2.72;;;;;;;24.36;81.05;99279.19;5113756;28;20191;-81
2022/06/16 09:12:41;;;;;;;6.35;2.63;;;;;;;24.76;76.17;99269.81;5113285;28;20278;-81
2022/06/16 09:15:22;;;;;;;4.60;2.50;;;;;;;24.87;75.05;99281.22;5113169;28;20198;-80
2022/06/16 09:18:10;;;;;;;3.72;2.10;;;;;;;25.13;73.91;99276.19;5113253;28;20433;-80
2022/06/16 09:20:42;;;;;;;4.90;2.53;;;;;;;25.22;71.23;99277.75;5112535;28;20195;-81
2022/06/16 09:23:31;;;;;;;7.20;2.60;;;;;;;25.25;69.91;99282.81;5111990;28;20198;-80
2022/06/16 09:26:15;;;;;;;7.35;2.40;;;;;;;25.12;69.88;99279.94;5113390;28;20194;-80
2022/06/16 09:28:47;;;;;;;6.85;2.53;;;;;;;25.17;68.73;99287.47;5115323;28;20214;-81
2022/06/16 09:31:26;;;;;;;4.22;2.30;;;;;;;25.52;67.61;99277.69;5071421;28;20211;-81
2022/06/16 09:34:03;;;;;;;6.03;3.00;;;;;;;25.67;65.89;99279.34;5066437;28;20277;-81
2022/06/16 09:36:36;;;;;;;4.55;2.65;;;;;;;25.46;67.14;99286.59;5065371;28;20200;-80
2022/06/16 09:39:09;;;;;;;6.65;3.20;;;;;;;25.76;65.49;99273.81;5070801;28;20239;-81
2022/06/16 09:44:52;;;;;;;3.97;2.33;;;;;;;26.12;61.61;99271.03;5070263;28;20201;-81
2022/06/16 09:47:28;;;;;;;3.58;2.20;;;;;;;26.25;64.07;99279.31;5071548;28;20226;-81
2022/06/16 09:50:06;;;;;;;4.57;2.30;;;;;;;26.55;61.79;99282.72;5104065;28;20190;-80
2022/06/16 09:52:40;;;;;;;5.45;2.58;;;;;;;26.42;60.74;99278.00;5117214;28;20226;-80
2022/06/16 09:55:17;;;;;;;4.55;2.50;;;;;;;26.45;59.63;99280.34;5117005;28;20278;-81
2022/06/16 09:57:51;;;;;;;5.40;2.65;;;;;;;26.77;58.31;99286.19;5116941;28;20190;-80
2022/06/16 10:00:22;;;;;;;5.45;2.85;;;;;;;25.95;62.65;99282.16;5117168;28;20218;-80
2022/06/16 10:02:57;;;;;;;4.22;2.60;;;;;;;26.36;65.50;99273.34;5119367;27;20202;-80
2022/06/16 10:05:35;;;;;;;4.40;2.65;;;;;;;26.47;60.68;99288.28;5115189;28;20194;-81
2022/06/16 10:08:09;;;;;;;2.70;2.33;;;;;;;26.73;59.97;99284.91;5112183;28;20187;-80
2022/06/16 10:10:45;;;;;;;5.68;2.60;;;;;;;26.77;57.04;99283.47;5113871;28;20198;-81
2022/06/16 10:13:25;;;;;;;7.95;2.88;;;;;;;27.22;57.64;99286.69;5116669;28;20190;-81
2022/06/16 10:16:02;;;;;;;4.10;2.42;;;;;;;27.42;54.52;99293.06;5117353;28;20191;-81
2022/06/16 10:18:32;;;;;;;5.97;2.40;;;;;;;27.47;55.49;99290.53;5116725;28;20248;-81
2022/06/16 10:21:02;;;;;;;4.00;2.90;;;;;;;27.95;55.98;99298.66;5113166;28;20308;-81
2022/06/16 10:23:36;;;;;;;4.05;2.45;;;;;;;27.87;53.89;99296.97;5108973;28;20194;-81
2022/06/16 10:26:07;;;;;;;5.32;2.40;;;;;;;27.92;54.68;99304.53;5114668;27;20205;-81
2022/06/16 10:28:38;;;;;;;7.00;2.17;;;;;;;27.93;53.50;99303.50;5113857;28;20199;-80
2022/06/16 10:31:08;;;;;;;5.72;2.55;;;;;;;27.82;52.60;99307.66;5113215;28;20187;-80
2022/06/16 10:33:54;;;;;;;5.85;2.47;;;;;;;28.82;50.78;99310.44;5115246;28;20227;-80
2022/06/16 10:36:27;;;;;;;4.78;2.10;;;;;;;28.68;51.97;99309.63;5110878;28;20203;-81
2022/06/16 10:39:17;;;;;;;4.75;2.58;;;;;;;28.71;51.52;99311.94;5115661;28;20187;-81
2022/06/16 10:41:53;;;;;;;4.60;2.30;;;;;;;28.06;51.29;99321.72;5116521;28;20266;-81
2022/06/16 10:44:26;;;;;;;3.40;2.33;;;;;;;28.12;50.99;99321.75;5116190;28;20273;-81
2022/06/16 10:46:58;;;;;;;4.95;2.40;;;;;;;27.70;53.26;99325.63;5116264;28;20195;-80
2022/06/16 10:49:33;;;;;;;3.83;2.40;;;;;;;28.31;51.74;99330.19;5095939;28;20646;-81
2022/06/16 10:52:09;;;;;;;4.15;2.50;;;;;;;28.16;52.84;99333.06;5114759;27;20203;-81
2022/06/16 10:54:44;;;;;;;5.13;2.67;;;;;;;28.49;51.36;99331.25;5115316;28;20269;-81
2022/06/16 10:57:18;;;;;;;4.38;2.53;;;;;;;28.09;52.39;99338.50;5116056;27;20251;-81
2022/06/16 10:59:52;;;;;;;4.00;2.28;;;;;;;28.70;52.12;99338.38;5114033;28;20221;-80
2022/06/16 11:02:25;;;;;;;4.97;2.47;;;;;;;28.62;52.48;99340.47;5051058;28;20668;-81
2022/06/16 11:05:04;;;;;;;4.38;2.60;;;;;;;28.84;48.39;99346.50;5003903;28;20189;-81
2022/06/16 11:07:37;;;;;;;3.75;2.40;;;;;;;29.23;48.86;99341.00;5044673;28;20197;-80
2022/06/16 11:10:09;;;;;;;2.42;2.22;;;;;;;28.93;49.15;99337.94;5048336;28;20201;-82
2022/06/16 11:12:39;;;;;;;3.78;2.22;;;;;;;29.28;49.27;99340.38;4974507;28;20203;-81
2022/06/16 11:15:18;;;;;;;5.28;2.30;;;;;;;29.64;49.93;99342.59;4970026;28;20207;-81
2022/06/16 11:17:50;;;;;;;5.15;2.55;;;;;;;28.81;49.95;99342.34;4967851;28;20196;-81
2022/06/16 11:20:31;;;;;;;4.20;2.50;;;;;;;29.29;47.77;99340.16;4997653;28;20217;-81
2022/06/16 11:23:00;;;;;;;4.40;2.53;;;;;;;28.89;50.38;99344.88;5049799;28;20197;-81
2022/06/16 11:25:31;;;;;;;2.50;2.30;;;;;;;29.27;48.95;99345.00;5043416;28;20212;-81
2022/06/16 11:28:12;;;;;;;4.13;2.40;;;;;;;29.33;46.50;99346.03;5053055;28;20384;-81
2022/06/16 11:30:44;;;;;;;4.15;2.50;;;;;;;29.25;49.36;99346.28;5048391;28;20204;-81
2022/06/16 11:34:06;;;;;;;5.60;2.30;;;;;;;29.30;49.15;99344.56;5053256;28;20221;-81
2022/06/16 11:36:25;;;;;;;3.50;2.22;;;;;;;29.90;45.55;99342.44;5055382;28;20197;-81
2022/06/16 11:39:06;;;;;;;4.82;2.80;;;;;;;29.29;47.01;99347.50;5115849;28;20210;-81
2022/06/16 11:41:34;;;;;;;4.50;2.17;;;;;;;28.99;46.24;99341.72;5116740;27;20225;-81
2022/06/16 11:44:17;;;;;;;5.43;2.65;;;;;;;29.35;44.79;99341.22;5116540;28;20229;-81
2022/06/16 11:46:53;;;;;;;3.78;2.58;;;;;;;29.90;43.32;99334.25;5117363;28;20229;-81
2022/06/16 11:49:35;;;;;;;2.58;2.20;;;;;;;29.97;44.82;99327.91;5111635;28;20191;-82
2022/06/16 11:52:16;;;;;;;4.35;3.10;;;;;;;29.72;44.10;99342.31;5117128;28;20319;-81
2022/06/16 11:55:02;;;;;;;3.90;3.33;;;;;;;30.18;42.85;99338.53;5117274;28;20191;-81
2022/06/16 11:57:42;;;;;;;4.40;2.70;;;;;;;30.66;41.61;99336.06;5117376;28;20203;-82
2022/06/16 12:00:31;;;;;;;7.00;3.15;;;;;;;30.19;42.08;99343.75;5114351;28;20305;-82
2022/06/16 12:03:40;;;;;;;3.15;2.13;;;;;;;30.83;41.11;99349.19;5117792;28;20195;-81
2022/06/16 12:06:27;;;;;;;4.38;2.75;;;;;;;30.00;40.78;99339.22;5116000;28;20199;-81
2022/06/16 12:09:10;;;;;;;4.43;2.10;;;;;;;30.66;40.38;99346.19;5112770;28;20198;-81
2022/06/16 12:11:48;;;;;;;4.38;2.90;;;;;;;30.72;39.03;99340.66;5113590;28;20198;-81
2022/06/16 12:14:42;;;;;;;3.90;1.98;;;;;;;30.09;38.89;99343.41;5117949;27;20195;-81
2022/06/16 12:17:17;;;;;;;2.38;2.05;;;;;;;30.94;38.22;99332.84;5114008;27;20280;-81
2022/06/16 12:19:52;;;;;;;2.70;1.95;;;;;;;31.02;37.88;99329.84;5108744;28;20198;-81